Time;durP1;ratioP1;P1;durP2;ratioP2;P2;SDS_P1;SDS_P2;PMS_P1;PMS_P2;Temp;Humidity;BMP_temperature;BMP_pressure;BME280_temperature;BME280_humidity;BME280_pressure;Samples;Min_cycle;Max_cycle;Signal;HPM_P1;HPM_P2
2020/12/26 00:02:08;;;;;;;11.00;8.30;;;6.40;57.70;;;;;;5012004;28;20194;-42
2020/12/26 00:04:34;;;;;;;8.97;7.10;;;6.40;57.80;;;;;;5012809;28;20327;-41
2020/12/26 00:07:00;;;;;;;9.90;7.20;;;6.30;57.80;;;;;;5012304;28;20198;-41
2020/12/26 00:09:26;;;;;;;10.47;7.50;;;6.40;57.70;;;;;;5012867;28;20429;-41
2020/12/26 00:11:52;;;;;;;10.57;9.03;;;6.50;57.60;;;;;;5011820;28;20427;-42
2020/12/26 00:14:18;;;;;;;12.20;9.70;;;6.40;57.40;;;;;;5012902;28;20943;-41
2020/12/26 00:16:44;;;;;;;13.27;10.50;;;6.50;57.40;;;;;;5012484;28;20201;-41
2020/12/26 00:19:14;;;;;;;14.40;9.43;;;6.50;57.30;;;;;;5011159;28;20845;-41
2020/12/26 00:21:41;;;;;;;10.07;8.60;;;6.50;57.40;;;;;;5011574;28;21165;-42
2020/12/26 00:24:07;;;;;;;12.40;8.60;;;6.40;57.40;;;;;;5012310;28;20441;-42
2020/12/26 00:26:32;;;;;;;12.70;8.77;;;6.40;57.60;;;;;;5011875;28;20994;-42
2020/12/26 00:28:58;;;;;;;10.93;8.77;;;6.40;57.50;;;;;;5012579;28;20672;-41
2020/12/26 00:31:23;;;;;;;11.13;9.50;;;6.30;57.40;;;;;;5011697;28;20207;-41
2020/12/26 00:33:49;;;;;;;11.40;8.63;;;6.30;57.50;;;;;;5012198;28;20194;-41
2020/12/26 00:36:14;;;;;;;13.50;8.83;;;6.30;57.40;;;;;;5012435;28;20198;-41
2020/12/26 00:38:40;;;;;;;10.20;8.50;;;6.20;57.60;;;;;;5011951;28;20182;-42
2020/12/26 00:41:05;;;;;;;9.10;7.77;;;6.20;57.70;;;;;;5012098;28;20291;-41
2020/12/26 00:43:31;;;;;;;11.87;8.80;;;6.20;57.80;;;;;;5011251;28;20662;-41
2020/12/26 00:45:57;;;;;;;14.90;9.20;;;6.20;57.60;;;;;;5010813;28;20720;-41
2020/12/26 00:48:22;;;;;;;11.53;8.80;;;6.20;57.50;;;;;;5007864;28;20240;-42
2020/12/26 00:50:48;;;;;;;14.07;10.87;;;6.30;57.70;;;;;;5009581;28;20608;-42
2020/12/26 00:53:13;;;;;;;13.40;10.60;;;6.30;57.70;;;;;;5011254;28;20252;-42
2020/12/26 00:55:39;;;;;;;15.53;11.13;;;6.20;57.60;;;;;;5012065;28;20217;-42
2020/12/26 00:58:04;;;;;;;13.77;9.50;;;6.30;57.80;;;;;;5011421;28;20232;-41
2020/12/26 01:00:30;;;;;;;13.30;10.23;;;6.30;57.90;;;;;;5011897;28;20312;-41
2020/12/26 01:02:55;;;;;;;12.60;9.10;;;6.30;58.00;;;;;;5010661;28;20198;-42
2020/12/26 01:05:21;;;;;;;15.20;9.00;;;6.30;57.80;;;;;;5011971;28;20201;-41
2020/12/26 01:07:47;;;;;;;10.47;8.43;;;6.10;57.50;;;;;;5011238;28;20744;-42
2020/12/26 01:10:12;;;;;;;12.20;8.97;;;6.10;58.60;;;;;;5011617;28;20667;-41
2020/12/26 01:12:38;;;;;;;12.90;8.30;;;6.20;58.20;;;;;;5009756;28;20214;-42
2020/12/26 01:15:04;;;;;;;12.37;9.37;;;6.20;58.20;;;;;;5011669;28;20555;-42
2020/12/26 01:17:29;;;;;;;11.50;9.07;;;6.30;58.10;;;;;;5010894;28;20193;-42
2020/12/26 01:19:55;;;;;;;13.33;8.63;;;6.30;58.10;;;;;;5011661;28;20445;-42
2020/12/26 01:22:21;;;;;;;10.47;7.70;;;6.30;57.90;;;;;;5010990;28;20220;-41
2020/12/26 01:24:47;;;;;;;11.57;8.57;;;6.30;57.80;;;;;;5011728;28;20991;-41
2020/12/26 01:27:12;;;;;;;14.80;10.43;;;6.30;57.70;;;;;;5011162;28;20198;-41
2020/12/26 01:29:38;;;;;;;11.30;8.33;;;6.30;57.60;;;;;;5011284;28;20228;-41
2020/12/26 01:32:03;;;;;;;8.97;8.07;;;6.30;57.50;;;;;;5010836;28;20236;-41
2020/12/26 01:34:29;;;;;;;10.20;8.40;;;6.30;57.50;;;;;;5011590;28;20668;-42
2020/12/26 01:36:55;;;;;;;10.13;7.83;;;6.30;57.50;;;;;;5010753;28;20274;-41
2020/12/26 01:39:22;;;;;;;8.63;7.63;;;6.30;58.30;;;;;;5010105;28;20190;-41
2020/12/26 01:41:52;;;;;;;12.20;8.20;;;6.30;57.80;;;;;;5010689;28;20484;-41
2020/12/26 01:44:18;;;;;;;11.23;8.10;;;6.30;57.80;;;;;;5011440;28;20429;-41
2020/12/26 01:46:46;;;;;;;12.67;9.03;;;6.30;57.80;;;;;;5010828;28;20429;-41
2020/12/26 01:49:11;;;;;;;10.30;7.37;;;6.40;57.80;;;;;;5004913;28;20583;-42
2020/12/26 01:51:39;;;;;;;9.90;8.07;;;6.30;57.70;;;;;;5010370;28;20516;-42
2020/12/26 01:54:04;;;;;;;9.97;7.23;;;6.40;57.60;;;;;;5011335;28;20214;-41
2020/12/26 01:56:31;;;;;;;10.90;7.00;;;6.40;57.60;;;;;;5010686;28;20463;-41
2020/12/26 01:58:56;;;;;;;8.87;7.97;;;6.50;57.60;;;;;;5011042;28;20194;-41
2020/12/26 02:01:39;;;;;;;10.83;7.03;;;6.50;57.60;;;;;;5010034;28;20484;-41
2020/12/26 02:04:06;;;;;;;9.57;7.30;;;6.40;57.60;;;;;;5009453;28;20470;-42
2020/12/26 02:06:42;;;;;;;9.23;7.80;;;6.40;57.70;;;;;;5010791;28;20463;-41
2020/12/26 02:09:07;;;;;;;11.83;8.50;;;6.40;57.80;;;;;;5010909;28;20523;-41
2020/12/26 02:11:33;;;;;;;11.13;8.00;;;6.40;58.40;;;;;;5009897;28;20812;-41
2020/12/26 02:13:59;;;;;;;9.53;8.20;;;6.40;57.60;;;;;;5011092;28;20696;-42
2020/12/26 02:16:24;;;;;;;11.57;7.63;;;6.40;57.70;;;;;;5014094;28;20638;-41
2020/12/26 02:18:50;;;;;;;9.87;7.83;;;6.30;57.70;;;;;;5015099;28;20646;-41
2020/12/26 02:21:17;;;;;;;11.70;8.63;;;6.30;57.90;;;;;;5014414;28;20252;-41
2020/12/26 02:23:46;;;;;;;10.50;7.60;;;6.40;57.90;;;;;;5014638;28;20205;-42
2020/12/26 02:26:12;;;;;;;14.60;9.03;;;6.40;57.80;;;;;;5014944;28;21104;-42
2020/12/26 02:28:39;;;;;;;12.13;8.40;;;6.30;57.30;;;;;;5014220;28;20429;-41
2020/12/26 02:31:05;;;;;;;9.80;7.90;;;6.20;57.70;;;;;;5012751;28;20413;-41
2020/12/26 02:33:34;;;;;;;10.73;8.50;;;6.20;58.50;;;;;;5013919;28;20421;-42
2020/12/26 02:36:03;;;;;;;11.00;8.33;;;6.20;58.00;;;;;;5014569;28;21345;-41
2020/12/26 02:38:29;;;;;;;8.70;7.57;;;6.30;57.80;;;;;;5014157;28;20440;-41
2020/12/26 02:40:55;;;;;;;9.17;8.20;;;6.40;57.70;;;;;;5014414;28;20893;-42
2020/12/26 02:43:26;;;;;;;10.10;7.67;;;6.40;57.70;;;;;;5013737;28;20304;-41
2020/12/26 02:45:55;;;;;;;9.87;8.27;;;6.40;58.30;;;;;;5014438;28;20465;-41
2020/12/26 02:48:21;;;;;;;8.83;7.20;;;6.20;57.30;;;;;;5010432;28;20469;-42
2020/12/26 02:50:48;;;;;;;9.73;7.60;;;6.30;57.90;;;;;;5011679;28;20917;-42
2020/12/26 02:53:13;;;;;;;10.33;7.60;;;6.20;58.10;;;;;;5013507;28;20980;-42
2020/12/26 02:55:39;;;;;;;8.17;7.20;;;6.30;58.20;;;;;;5014361;28;20429;-41
2020/12/26 02:58:04;;;;;;;8.47;7.60;;;6.30;57.90;;;;;;5012025;28;20201;-41
2020/12/26 03:00:30;;;;;;;9.60;8.23;;;6.40;57.70;;;;;;5014248;28;20222;-41
2020/12/26 03:02:56;;;;;;;9.50;8.23;;;6.40;57.30;;;;;;5013038;28;20190;-41
2020/12/26 03:05:21;;;;;;;9.17;8.27;;;6.40;57.20;;;;;;5014277;28;20201;-41
2020/12/26 03:07:47;;;;;;;8.33;7.40;;;6.40;57.30;;;;;;5013576;28;20201;-41
2020/12/26 03:10:13;;;;;;;8.43;7.53;;;6.30;57.60;;;;;;5013993;28;20242;-41
2020/12/26 03:12:39;;;;;;;8.97;8.07;;;6.30;57.70;;;;;;5012754;28;20190;-41
2020/12/26 03:15:05;;;;;;;9.13;8.20;;;6.40;57.70;;;;;;5013900;28;20194;-41
2020/12/26 03:17:31;;;;;;;10.33;7.10;;;6.30;57.60;;;;;;5013230;28;20277;-41
2020/12/26 03:19:58;;;;;;;11.37;8.63;;;6.30;57.70;;;;;;5013783;28;20562;-41
2020/12/26 03:22:25;;;;;;;11.13;8.67;;;6.30;57.80;;;;;;5012841;28;20644;-41
2020/12/26 03:24:51;;;;;;;9.47;7.90;;;6.40;57.90;;;;;;5012041;28;20468;-41
2020/12/26 03:27:17;;;;;;;10.13;8.27;;;6.40;58.00;;;;;;5013089;28;20417;-42
2020/12/26 03:29:42;;;;;;;10.30;9.17;;;6.40;57.90;;;;;;5013603;28;20431;-42
2020/12/26 03:32:08;;;;;;;10.23;8.03;;;6.50;57.80;;;;;;5012623;28;20753;-42
2020/12/26 03:34:33;;;;;;;12.40;8.27;;;6.50;57.70;;;;;;5013455;28;20190;-41
2020/12/26 03:36:59;;;;;;;9.60;7.70;;;6.50;57.60;;;;;;5013084;28;20186;-41
2020/12/26 03:39:24;;;;;;;11.83;8.40;;;6.50;57.50;;;;;;5013499;28;20194;-42
2020/12/26 03:41:50;;;;;;;11.70;9.10;;;6.50;57.70;;;;;;5012335;28;20284;-41
2020/12/26 03:44:16;;;;;;;11.50;8.97;;;6.30;57.50;;;;;;5013165;28;20676;-41
2020/12/26 03:46:41;;;;;;;10.60;8.10;;;6.30;57.80;;;;;;5012552;28;20201;-42
2020/12/26 03:49:07;;;;;;;10.07;8.47;;;6.30;57.80;;;;;;5006769;28;20329;-42
2020/12/26 03:51:32;;;;;;;10.70;8.23;;;6.30;57.70;;;;;;5010778;28;20196;-41
2020/12/26 03:53:58;;;;;;;8.90;7.80;;;6.30;57.80;;;;;;5013081;28;20197;-41
2020/12/26 03:56:25;;;;;;;10.20;7.90;;;6.40;57.90;;;;;;5012625;28;20186;-42
2020/12/26 03:58:50;;;;;;;10.60;8.50;;;6.40;57.90;;;;;;5013235;28;20617;-42
2020/12/26 04:01:16;;;;;;;10.03;8.80;;;6.50;57.70;;;;;;5012485;28;20587;-41
2020/12/26 04:03:41;;;;;;;10.30;8.30;;;6.50;57.70;;;;;;5012440;28;20252;-41
2020/12/26 04:06:07;;;;;;;9.70;8.70;;;6.50;57.60;;;;;;5013103;28;20280;-42
2020/12/26 04:08:32;;;;;;;10.30;7.53;;;6.50;57.50;;;;;;5012385;28;20237;-42
2020/12/26 04:10:58;;;;;;;10.83;8.97;;;6.60;57.40;;;;;;5012597;28;20193;-41
2020/12/26 04:13:23;;;;;;;9.53;8.60;;;6.40;57.10;;;;;;5011847;28;20193;-41
2020/12/26 04:15:49;;;;;;;13.97;8.00;;;6.50;57.30;;;;;;5013092;28;20210;-42
2020/12/26 04:18:15;;;;;;;14.00;10.07;;;6.30;57.40;;;;;;5010586;28;20194;-42
2020/12/26 04:20:41;;;;;;;19.10;11.40;;;6.30;58.20;;;;;;5012333;28;20261;-41
2020/12/26 04:23:06;;;;;;;13.47;10.30;;;6.40;57.60;;;;;;5011688;28;20261;-42
2020/12/26 04:25:32;;;;;;;17.57;11.03;;;6.50;57.60;;;;;;5012618;28;20429;-42
2020/12/26 04:27:57;;;;;;;12.50;9.43;;;6.40;57.40;;;;;;5011969;28;20644;-41
2020/12/26 04:30:24;;;;;;;14.77;9.50;;;6.50;58.00;;;;;;5012510;28;20220;-41
2020/12/26 04:32:50;;;;;;;11.17;9.03;;;6.50;57.70;;;;;;5011571;28;20194;-41
2020/12/26 04:35:19;;;;;;;11.70;9.43;;;6.50;57.80;;;;;;5011146;28;20929;-41
2020/12/26 04:37:45;;;;;;;11.13;8.40;;;6.40;57.80;;;;;;5011440;28;20463;-41
2020/12/26 04:40:11;;;;;;;12.90;8.80;;;6.40;57.80;;;;;;5012384;28;20496;-41
2020/12/26 04:42:38;;;;;;;13.37;8.90;;;6.40;57.80;;;;;;5011364;28;20425;-41
2020/12/26 04:45:04;;;;;;;12.37;8.20;;;6.40;57.90;;;;;;5010540;28;20425;-41
2020/12/26 04:47:32;;;;;;;11.43;8.23;;;6.30;57.80;;;;;;5011495;28;20783;-41
2020/12/26 04:49:59;;;;;;;12.90;9.13;;;6.30;57.90;;;;;;5005872;28;20460;-41
2020/12/26 04:52:28;;;;;;;12.73;8.67;;;6.30;57.80;;;;;;5010903;28;20436;-41
2020/12/26 04:54:55;;;;;;;10.83;7.87;;;6.30;57.60;;;;;;5012103;28;20952;-41
2020/12/26 04:57:22;;;;;;;10.50;9.10;;;6.30;57.40;;;;;;5011627;28;20487;-42
2020/12/26 04:59:48;;;;;;;9.43;7.90;;;6.40;57.50;;;;;;5012165;28;20521;-41
2020/12/26 05:02:15;;;;;;;12.67;8.87;;;6.20;57.60;;;;;;5011159;28;20511;-41
2020/12/26 05:04:43;;;;;;;12.03;8.57;;;6.10;57.50;;;;;;5011942;28;20586;-41
2020/12/26 05:07:11;;;;;;;13.40;8.43;;;6.10;58.10;;;;;;5011387;28;20461;-41
2020/12/26 05:09:37;;;;;;;13.90;9.53;;;6.10;58.00;;;;;;5011966;28;20523;-41
2020/12/26 05:12:02;;;;;;;13.10;9.50;;;6.10;58.00;;;;;;5009200;28;20468;-41
2020/12/26 05:14:30;;;;;;;11.60;8.43;;;6.10;58.10;;;;;;5011514;28;20456;-41
2020/12/26 05:16:56;;;;;;;10.97;8.50;;;6.20;58.10;;;;;;5011394;28;20224;-41
2020/12/26 05:19:22;;;;;;;11.90;9.60;;;6.20;58.00;;;;;;5011830;28;20424;-41
2020/12/26 05:21:52;;;;;;;10.97;8.97;;;6.20;58.10;;;;;;5010684;28;20785;-41
2020/12/26 05:24:19;;;;;;;12.33;9.13;;;6.30;58.10;;;;;;5011604;28;20917;-41
2020/12/26 05:26:46;;;;;;;10.73;8.90;;;6.40;58.00;;;;;;5010844;28;20425;-41
2020/12/26 05:29:13;;;;;;;10.00;8.17;;;6.40;57.90;;;;;;5011494;28;20429;-41
2020/12/26 05:31:46;;;;;;;12.57;9.10;;;6.40;57.90;;;;;;5010468;28;20487;-41
2020/12/26 05:34:13;;;;;;;11.50;8.90;;;6.50;58.00;;;;;;5011114;28;20591;-41
2020/12/26 05:36:38;;;;;;;9.57;8.40;;;6.50;58.00;;;;;;5010775;28;20920;-41
2020/12/26 05:39:05;;;;;;;12.77;8.70;;;6.50;58.00;;;;;;5009792;28;20433;-41
2020/12/26 05:41:31;;;;;;;10.97;8.80;;;6.50;58.20;;;;;;5010257;28;20605;-41
2020/12/26 05:43:58;;;;;;;10.40;8.87;;;6.50;58.10;;;;;;5011081;28;20535;-41
2020/12/26 05:46:24;;;;;;;15.30;10.20;;;6.50;58.40;;;;;;5010730;28;20852;-41
2020/12/26 05:48:50;;;;;;;13.83;9.37;;;6.50;58.40;;;;;;5004311;28;20469;-41
2020/12/26 05:51:28;;;;;;;10.33;9.10;;;6.50;58.40;;;;;;5010539;28;20491;-42
2020/12/26 05:53:55;;;;;;;11.27;8.97;;;6.50;58.50;;;;;;5011208;28;20237;-41
2020/12/26 05:56:21;;;;;;;11.03;8.53;;;6.50;58.50;;;;;;5011141;28;20906;-41
2020/12/26 05:58:47;;;;;;;11.43;9.40;;;6.50;58.70;;;;;;5011198;28;20433;-42
2020/12/26 06:01:19;;;;;;;12.20;9.60;;;6.40;58.80;;;;;;5011078;28;20505;-41
2020/12/26 06:03:44;;;;;;;11.60;10.37;;;6.20;59.10;;;;;;5010612;28;20202;-41
2020/12/26 06:06:13;;;;;;;12.50;9.27;;;6.10;59.10;;;;;;5009745;28;20429;-41
2020/12/26 06:08:39;;;;;;;10.73;9.10;;;6.10;59.30;;;;;;5010565;28;20186;-42
2020/12/26 06:11:06;;;;;;;11.00;9.10;;;6.20;59.30;;;;;;5010654;28;20429;-41
2020/12/26 06:13:33;;;;;;;14.63;10.37;;;6.20;59.00;;;;;;5010642;28;20443;-42
2020/12/26 06:16:24;;;;;;;12.53;9.87;;;6.00;59.70;;;;;;5011057;28;20424;-42
2020/12/26 06:18:56;;;;;;;14.73;10.37;;;5.90;60.00;;;;;;5011206;28;20448;-41
2020/12/26 06:21:23;;;;;;;13.47;9.97;;;5.70;61.30;;;;;;5010256;28;21366;-41
2020/12/26 06:23:50;;;;;;;12.37;9.40;;;5.70;60.80;;;;;;5011040;28;20449;-42
2020/12/26 06:26:17;;;;;;;12.00;9.20;;;5.60;60.40;;;;;;5010990;28;20432;-41
2020/12/26 06:28:44;;;;;;;15.70;10.00;;;5.60;60.70;;;;;;5010525;28;20925;-42
2020/12/26 06:31:11;;;;;;;14.67;9.00;;;5.70;60.80;;;;;;5009037;28;20429;-41
2020/12/26 06:33:48;;;;;;;10.50;8.73;;;5.80;60.40;;;;;;5010376;28;20429;-41
2020/12/26 06:36:14;;;;;;;12.73;9.00;;;5.60;60.50;;;;;;5010924;28;20432;-41
2020/12/26 06:38:41;;;;;;;12.73;8.77;;;5.60;60.70;;;;;;5010309;28;20495;-41
2020/12/26 06:41:13;;;;;;;12.63;8.60;;;5.70;60.40;;;;;;5010415;28;20523;-41
2020/12/26 06:43:43;;;;;;;12.83;9.40;;;5.80;60.00;;;;;;5010413;28;20421;-41
2020/12/26 06:46:31;;;;;;;11.90;8.90;;;5.90;59.80;;;;;;5010551;28;20425;-42
2020/12/26 06:48:58;;;;;;;11.23;9.20;;;6.00;59.30;;;;;;5010558;28;20476;-41
2020/12/26 06:51:26;;;;;;;10.20;8.73;;;6.10;59.50;;;;;;5009592;28;20836;-41
2020/12/26 06:53:53;;;;;;;12.17;9.00;;;6.10;58.90;;;;;;5010664;28;20432;-41
2020/12/26 06:56:34;;;;;;;13.20;8.90;;;6.10;58.90;;;;;;5010768;28;20419;-41
2020/12/26 06:59:02;;;;;;;14.63;9.20;;;6.10;58.80;;;;;;5008914;28;20796;-41
2020/12/26 07:01:29;;;;;;;11.37;9.57;;;6.20;58.70;;;;;;5011253;28;20619;-41
2020/12/26 07:04:18;;;;;;;11.53;9.17;;;6.20;58.70;;;;;;5014214;28;20791;-41
2020/12/26 07:06:44;;;;;;;16.63;10.70;;;6.20;58.60;;;;;;5013566;28;20810;-41
2020/12/26 07:09:12;;;;;;;16.77;9.90;;;6.20;58.70;;;;;;5014015;28;20508;-41
2020/12/26 07:11:49;;;;;;;9.90;8.63;;;5.80;59.00;;;;;;5012862;28;20432;-41
2020/12/26 07:14:35;;;;;;;13.13;9.87;;;5.70;59.60;;;;;;5014005;28;20424;-41
2020/12/26 07:17:12;;;;;;;12.43;9.47;;;5.70;59.80;;;;;;5012969;28;20455;-42
2020/12/26 07:19:42;;;;;;;13.27;10.50;;;5.70;59.90;;;;;;5013854;28;20908;-41
2020/12/26 07:22:15;;;;;;;18.30;10.97;;;5.30;60.70;;;;;;5012794;28;20916;-41
2020/12/26 07:24:46;;;;;;;18.60;11.87;;;5.40;61.30;;;;;;5012015;28;20954;-41
2020/12/26 07:27:12;;;;;;;18.07;12.60;;;5.70;61.10;;;;;;5013260;28;20447;-42
2020/12/26 07:29:50;;;;;;;16.60;11.20;;;5.80;60.40;;;;;;5013407;28;20433;-41
2020/12/26 07:32:38;;;;;;;15.10;10.43;;;5.90;60.20;;;;;;5013167;28;20235;-42
2020/12/26 07:35:08;;;;;;;14.83;11.17;;;6.00;60.00;;;;;;5013693;28;20428;-41
2020/12/26 07:37:33;;;;;;;14.87;10.00;;;6.10;59.80;;;;;;5012869;28;20964;-42
2020/12/26 07:39:59;;;;;;;13.80;10.57;;;6.20;59.60;;;;;;5013107;28;20504;-42
2020/12/26 07:42:26;;;;;;;14.63;10.33;;;6.30;59.60;;;;;;5012397;28;20562;-41
2020/12/26 07:44:53;;;;;;;15.27;11.70;;;6.20;59.70;;;;;;5012208;28;20991;-42
2020/12/26 07:47:18;;;;;;;16.47;10.50;;;6.20;59.80;;;;;;5012868;28;20460;-41
2020/12/26 07:49:59;;;;;;;14.37;11.03;;;6.20;59.80;;;;;;5012860;28;20501;-41
2020/12/26 07:52:25;;;;;;;13.90;10.63;;;6.30;59.60;;;;;;5010965;28;20636;-41
2020/12/26 07:55:00;;;;;;;16.33;11.50;;;6.30;59.40;;;;;;5013450;28;20456;-42
2020/12/26 07:57:27;;;;;;;15.60;11.80;;;6.20;59.30;;;;;;5012351;28;20859;-41
2020/12/26 07:59:54;;;;;;;19.20;13.00;;;6.30;59.60;;;;;;5013159;28;20912;-41
2020/12/26 08:02:20;;;;;;;17.47;13.20;;;6.40;59.50;;;;;;5012268;28;20413;-41
2020/12/26 08:04:46;;;;;;;24.70;13.30;;;6.40;59.40;;;;;;5013256;28;20432;-41
2020/12/26 08:07:13;;;;;;;22.37;13.57;;;6.30;59.70;;;;;;5012228;28;20208;-41
2020/12/26 08:09:46;;;;;;;17.30;11.43;;;6.40;60.10;;;;;;5013113;28;20461;-42
2020/12/26 08:12:12;;;;;;;15.43;12.17;;;6.50;59.90;;;;;;5010896;28;20461;-42
2020/12/26 08:14:38;;;;;;;16.77;11.47;;;6.30;59.90;;;;;;5012872;28;20483;-41
2020/12/26 08:17:04;;;;;;;19.37;13.00;;;6.40;60.00;;;;;;5011968;28;20186;-41
2020/12/26 08:19:30;;;;;;;18.60;13.17;;;6.10;60.00;;;;;;5011202;28;20606;-41
2020/12/26 08:21:59;;;;;;;19.90;13.63;;;5.90;62.10;;;;;;5011483;28;20600;-41
2020/12/26 08:24:25;;;;;;;16.33;11.53;;;5.80;62.40;;;;;;5012778;28;20432;-42
2020/12/26 08:26:54;;;;;;;23.43;14.37;;;5.80;62.60;;;;;;5012103;28;20909;-41
2020/12/26 08:29:29;;;;;;;21.87;13.20;;;5.70;63.00;;;;;;5012328;28;20206;-41
2020/12/26 08:32:00;;;;;;;20.03;12.57;;;5.60;62.90;;;;;;5011875;28;20457;-44
2020/12/26 08:34:41;;;;;;;14.20;11.67;;;5.80;63.40;;;;;;5012422;28;20961;-42
2020/12/26 08:37:38;;;;;;;18.37;13.13;;;5.80;63.20;;;;;;5011735;28;20428;-42
2020/12/26 08:40:09;;;;;;;24.60;12.20;;;5.80;63.30;;;;;;5012061;28;20429;-41
2020/12/26 08:42:36;;;;;;;21.63;12.53;;;5.90;63.30;;;;;;5011433;28;20440;-41
2020/12/26 08:45:26;;;;;;;17.00;11.53;;;6.10;63.10;;;;;;5010415;28;20425;-42
2020/12/26 08:47:52;;;;;;;16.43;11.53;;;6.30;62.30;;;;;;5011408;28;20433;-42
2020/12/26 08:50:17;;;;;;;17.37;12.60;;;6.00;62.00;;;;;;5012261;28;20437;-41
2020/12/26 08:52:44;;;;;;;18.70;11.87;;;6.10;62.80;;;;;;5010892;28;20193;-41
2020/12/26 08:55:10;;;;;;;26.17;12.90;;;6.10;62.00;;;;;;5012311;28;20251;-41
2020/12/26 08:57:38;;;;;;;13.67;10.97;;;6.00;62.50;;;;;;5011413;28;20999;-41
2020/12/26 09:00:22;;;;;;;15.83;11.13;;;5.80;62.50;;;;;;5012187;28;20654;-41
2020/12/26 09:02:53;;;;;;;16.40;11.70;;;5.80;62.90;;;;;;5010897;28;20436;-41
2020/12/26 09:05:29;;;;;;;16.87;10.97;;;5.90;63.00;;;;;;5012099;28;20548;-41
2020/12/26 09:08:06;;;;;;;16.07;10.60;;;6.00;62.90;;;;;;5011473;28;20428;-41
2020/12/26 09:10:36;;;;;;;15.73;9.97;;;6.30;62.50;;;;;;5011293;28;20457;-41
2020/12/26 09:13:13;;;;;;;14.53;9.63;;;6.50;62.00;;;;;;5010202;28;20425;-41
2020/12/26 09:16:02;;;;;;;14.80;10.60;;;6.50;61.00;;;;;;5012061;28;20428;-41
2020/12/26 09:18:29;;;;;;;14.93;9.40;;;6.50;60.40;;;;;;5010792;28;20445;-41
2020/12/26 09:20:58;;;;;;;15.67;10.47;;;6.50;60.30;;;;;;5011276;28;20495;-42
2020/12/26 09:23:30;;;;;;;16.40;10.80;;;6.30;60.40;;;;;;5011090;28;20433;-42
2020/12/26 09:26:11;;;;;;;11.43;9.10;;;6.30;60.70;;;;;;5011584;28;20820;-42
2020/12/26 09:28:46;;;;;;;15.27;9.30;;;6.60;60.70;;;;;;5011220;28;20425;-42
2020/12/26 09:31:13;;;;;;;12.40;8.80;;;7.00;59.80;;;;;;5011110;28;20515;-42
2020/12/26 09:33:39;;;;;;;13.03;8.97;;;7.30;59.70;;;;;;5010954;28;20834;-42
2020/12/26 09:36:08;;;;;;;11.03;9.00;;;7.30;58.60;;;;;;5011388;28;20836;-42
2020/12/26 09:38:34;;;;;;;12.27;9.20;;;7.10;58.00;;;;;;5009390;28;20880;-41
2020/12/26 09:41:16;;;;;;;14.17;9.43;;;7.50;58.20;;;;;;5010944;28;20575;-41
2020/12/26 09:43:44;;;;;;;11.10;7.70;;;7.50;58.20;;;;;;5010941;28;20677;-42
2020/12/26 09:46:09;;;;;;;15.10;8.97;;;7.70;57.60;;;;;;5011133;28;20519;-41
2020/12/26 09:48:35;;;;;;;9.10;7.53;;;7.90;57.50;;;;;;5005337;28;20544;-41
2020/12/26 09:51:01;;;;;;;12.00;8.80;;;7.70;57.90;;;;;;5010267;28;20558;-42
2020/12/26 09:53:26;;;;;;;13.67;8.43;;;7.80;58.00;;;;;;5010813;28;20708;-42
2020/12/26 09:55:52;;;;;;;10.80;8.43;;;8.00;57.80;;;;;;5011386;28;20194;-42
2020/12/26 09:58:18;;;;;;;12.00;8.63;;;8.20;56.90;;;;;;5010930;28;20252;-42
2020/12/26 10:00:44;;;;;;;11.23;8.43;;;8.40;56.50;;;;;;5010915;28;20222;-41
2020/12/26 10:03:10;;;;;;;13.20;8.13;;;8.50;56.20;;;;;;5010795;28;20275;-41
2020/12/26 10:05:36;;;;;;;13.40;8.33;;;8.50;55.90;;;;;;5009418;28;20433;-42
2020/12/26 10:08:01;;;;;;;12.80;8.90;;;8.50;55.30;;;;;;5010574;28;20189;-42
2020/12/26 10:10:27;;;;;;;11.63;8.13;;;8.60;55.70;;;;;;5010971;28;20197;-42
2020/12/26 10:12:52;;;;;;;10.23;7.90;;;8.70;55.10;;;;;;5010743;28;20665;-42
2020/12/26 10:15:18;;;;;;;12.40;8.43;;;8.70;55.20;;;;;;5011149;28;20201;-42
2020/12/26 10:17:44;;;;;;;18.80;8.97;;;8.80;55.20;;;;;;5010479;28;20197;-42
2020/12/26 10:20:10;;;;;;;10.73;8.17;;;9.00;55.20;;;;;;5010950;28;20205;-42
2020/12/26 10:22:36;;;;;;;10.43;8.93;;;9.00;54.70;;;;;;5010115;28;20420;-42
2020/12/26 10:25:02;;;;;;;10.03;7.27;;;9.10;54.30;;;;;;5010868;28;20190;-42
2020/12/26 10:27:27;;;;;;;11.40;8.10;;;9.20;54.20;;;;;;5010462;28;20685;-42
2020/12/26 10:29:53;;;;;;;9.63;7.50;;;9.20;53.70;;;;;;5010955;28;20425;-42
2020/12/26 10:32:18;;;;;;;9.77;7.17;;;9.20;53.70;;;;;;5008485;28;20190;-42
2020/12/26 10:34:44;;;;;;;10.40;6.63;;;9.20;53.30;;;;;;5010811;28;20201;-42
2020/12/26 10:37:12;;;;;;;13.03;8.17;;;9.30;52.90;;;;;;5013310;28;20205;-42
2020/12/26 10:39:37;;;;;;;9.77;7.03;;;9.30;53.10;;;;;;5014581;28;20299;-42
2020/12/26 10:42:03;;;;;;;10.40;6.67;;;9.40;53.10;;;;;;5013749;28;20975;-41
2020/12/26 10:44:29;;;;;;;8.00;7.03;;;9.50;52.50;;;;;;5014489;28;20197;-41
2020/12/26 10:46:54;;;;;;;9.67;7.43;;;9.40;51.80;;;;;;5014150;28;20316;-42
2020/12/26 10:49:20;;;;;;;10.73;7.17;;;9.40;52.00;;;;;;5008448;28;20260;-42
2020/12/26 10:51:48;;;;;;;9.30;6.67;;;9.50;52.70;;;;;;5013737;28;20205;-42
2020/12/26 10:54:14;;;;;;;9.77;7.37;;;9.50;52.10;;;;;;5014395;28;20287;-42
2020/12/26 10:56:45;;;;;;;9.50;6.57;;;9.50;51.90;;;;;;5013749;28;21300;-42
2020/12/26 10:59:11;;;;;;;10.63;7.00;;;9.30;51.60;;;;;;5012575;28;20197;-42
2020/12/26 11:01:36;;;;;;;8.70;6.67;;;9.30;52.40;;;;;;5013109;28;20843;-42
2020/12/26 11:04:05;;;;;;;10.40;7.87;;;9.40;52.80;;;;;;5014130;28;20196;-42
2020/12/26 11:06:30;;;;;;;9.20;7.27;;;9.50;52.80;;;;;;5013651;28;20205;-42
2020/12/26 11:08:56;;;;;;;8.27;7.47;;;9.50;53.00;;;;;;5014009;28;20421;-42
2020/12/26 11:11:21;;;;;;;12.50;6.73;;;9.60;53.00;;;;;;5013533;28;20264;-42
2020/12/26 11:13:47;;;;;;;7.83;7.03;;;9.50;52.00;;;;;;5013751;28;20748;-42
2020/12/26 11:16:17;;;;;;;9.13;7.00;;;9.60;51.90;;;;;;5013872;28;20233;-42
2020/12/26 11:18:44;;;;;;;8.37;6.80;;;9.60;51.60;;;;;;5013218;28;20508;-42
2020/12/26 11:21:15;;;;;;;8.57;6.80;;;9.60;53.00;;;;;;5013342;28;20488;-42
2020/12/26 11:23:41;;;;;;;8.03;6.57;;;9.60;52.50;;;;;;5013229;28;20905;-42
2020/12/26 11:26:07;;;;;;;9.23;7.00;;;9.70;52.70;;;;;;5012101;28;20435;-42
2020/12/26 11:28:33;;;;;;;10.40;6.80;;;9.90;52.40;;;;;;5013360;28;20425;-42
2020/12/26 11:30:59;;;;;;;11.03;7.20;;;9.80;52.20;;;;;;5013145;28;20623;-42
2020/12/26 11:33:24;;;;;;;9.43;7.00;;;9.70;51.90;;;;;;5013065;28;20503;-42
2020/12/26 11:35:50;;;;;;;13.20;7.47;;;9.80;51.70;;;;;;5013373;28;20213;-42
2020/12/26 11:38:16;;;;;;;12.43;7.80;;;9.90;51.60;;;;;;5012954;28;20190;-42
2020/12/26 11:40:41;;;;;;;11.23;6.60;;;9.90;51.80;;;;;;5013068;28;20222;-42
2020/12/26 11:43:07;;;;;;;7.67;6.70;;;10.00;51.30;;;;;;5013028;28;20197;-43
2020/12/26 11:45:33;;;;;;;10.47;7.50;;;10.10;51.40;;;;;;5013158;28;20218;-42
2020/12/26 11:47:58;;;;;;;8.40;6.67;;;10.00;51.00;;;;;;5012568;28;20192;-42
2020/12/26 11:50:24;;;;;;;14.43;7.30;;;9.60;51.70;;;;;;5006867;28;20236;-42
2020/12/26 11:52:49;;;;;;;6.40;5.80;;;9.60;52.70;;;;;;5011352;28;20984;-42
2020/12/26 11:55:15;;;;;;;10.63;7.33;;;9.70;52.60;;;;;;5012932;28;20194;-42
2020/12/26 11:57:41;;;;;;;7.70;6.90;;;9.80;52.10;;;;;;5012791;28;20281;-42
2020/12/26 12:00:06;;;;;;;8.83;6.03;;;9.90;52.30;;;;;;5013052;28;20669;-42
2020/12/26 12:02:32;;;;;;;9.70;6.60;;;10.10;50.80;;;;;;5012256;28;20201;-42
2020/12/26 12:04:57;;;;;;;9.10;6.80;;;10.20;51.30;;;;;;5012988;28;20721;-42
2020/12/26 12:07:23;;;;;;;9.37;6.70;;;10.30;51.00;;;;;;5012801;28;20539;-42
2020/12/26 12:09:49;;;;;;;8.57;6.40;;;10.50;50.80;;;;;;5013130;28;20186;-43
2020/12/26 12:12:14;;;;;;;8.57;6.90;;;10.50;50.80;;;;;;5011993;28;20209;-42
2020/12/26 12:14:40;;;;;;;9.60;7.13;;;10.60;50.50;;;;;;5012876;28;20421;-42
2020/12/26 12:17:05;;;;;;;7.47;6.03;;;10.70;50.10;;;;;;5012217;28;20201;-42
2020/12/26 12:19:31;;;;;;;8.57;6.80;;;10.80;49.80;;;;;;5011162;28;20260;-42
2020/12/26 12:21:56;;;;;;;7.37;6.43;;;10.80;49.60;;;;;;5011693;28;20327;-42
2020/12/26 12:24:22;;;;;;;7.77;5.60;;;10.70;48.00;;;;;;5012633;28;20197;-42
2020/12/26 12:26:48;;;;;;;6.10;5.50;;;10.70;48.40;;;;;;5012282;28;20209;-42
2020/12/26 12:29:13;;;;;;;7.70;6.33;;;10.70;48.90;;;;;;5012710;28;20194;-42
2020/12/26 12:31:39;;;;;;;9.27;6.30;;;10.70;48.80;;;;;;5011479;28;20623;-42
2020/12/26 12:34:07;;;;;;;8.07;6.00;;;10.60;48.20;;;;;;5012546;28;20306;-42
2020/12/26 12:36:33;;;;;;;7.87;6.77;;;10.50;48.90;;;;;;5011732;28;20435;-42
2020/12/26 12:38:59;;;;;;;7.87;6.00;;;10.60;48.70;;;;;;5012483;28;20905;-42
2020/12/26 12:41:24;;;;;;;25.00;16.73;;;10.60;48.50;;;;;;5011135;28;20486;-42
2020/12/26 12:43:50;;;;;;;9.60;8.20;;;10.80;48.80;;;;;;5012482;28;20280;-42
2020/12/26 12:46:16;;;;;;;8.67;6.87;;;10.80;48.70;;;;;;5010127;28;20261;-42
2020/12/26 12:48:41;;;;;;;7.07;5.60;;;10.80;48.90;;;;;;5005957;28;20320;-43